Stacja Pogody
Warszawa Praga-Północ

Szerokość 52°15'43"N Długość 21°01'22"E Wysokość 110m n.p.m.


325 dzień roku.   Do końca pozostalo 40 dni.   Od wczoraj ubyło 3 min. i 5 sek. dnia.
Wschód Słońca 07:06 Górowanie Słońca 11:21 Zachód Słońca 15:36 skorpion
Data juliańska 2458444.791 Odległość Słońca 147751536 km Średn. kątowa Słońca 0,324°
Wschód Księżyca 15:15 Zachód Księżyca 04:19 Wiek Księżyca 13 dni Moon
Widoczność Księżyca 94,85% Odległość Księżyca 386135 km Średn. kątowa Księżyca 0,309°
Dzień krótszy od najdłuższego o: 08:17 Długość dnia 08:30 Imieniny Alberta, Janusza, Konrada



  Aktualizacja: 21-11-2018 06:57:36
TEMPERATURA
Aktualnie: 3.8°C →
Temperatura odczuwalna:1.4°C
Punkt rosy-3.2°C
WIATR
Średnia prędkość: 0.0km/h →
Prędkość w podmuchach:0.0km/h
Przepływ w ciągu doby:0.0km
Kierunek wiatru:90°
CIŚNIENIE
Względne:1025.5hPa
Trend ciśnienia:powolny wzrost
WILGOTNOŚĆ
Wilgotność względna: 60% →
Podstawa chmur3281m
DESZCZ
W ostatniej godzinie: 0.0mm
Dzisiaj:0.0mm
W tym miesiącu:3.9mm
METAR
EPWA 210530Z 09013KT 9999 BKN014 M01/M04 Q1024 NOSIG
Ostrzeżenia burzowe
Prognoza 12-to godzinna (prawdopodobieństwo 75%):   Stabilna, dobra pogoda prognoza





a  a